Time;durP1;ratioP1;P1;durP2;ratioP2;P2;SDS_P1;SDS_P2;PMS_P1;PMS_P2;Temp;Humidity;BMP_temperature;BMP_pressure;BME280_temperature;BME280_humidity;BME280_pressure;Samples;Min_cycle;Max_cycle;Signal;HPM_P1;HPM_P2
2023/06/17 00:02:10;;;;;;;14.82;11.73;;;23.30;66.00;;;;;;7641042;22;83215;-64
2023/06/17 00:05:11;;;;;;;15.45;11.80;;;23.30;66.20;;;;;;7637624;22;83155;-64
2023/06/17 00:08:11;;;;;;;16.02;11.77;;;23.20;66.10;;;;;;7636585;22;83794;-64
2023/06/17 00:11:12;;;;;;;15.10;12.40;;;23.20;66.00;;;;;;7639430;22;83162;-63
2023/06/17 00:14:12;;;;;;;17.08;12.75;;;23.20;66.00;;;;;;7637687;22;84216;-64
2023/06/17 00:17:14;;;;;;;18.63;12.63;;;23.20;66.20;;;;;;7636454;22;83345;-63
2023/06/17 00:20:14;;;;;;;18.55;12.73;;;23.30;66.30;;;;;;7635389;22;83175;-64
2023/06/17 00:23:15;;;;;;;15.90;11.80;;;23.20;66.30;;;;;;7637976;22;85256;-64
2023/06/17 00:26:15;;;;;;;14.32;11.35;;;23.20;66.30;;;;;;7610436;22;86439;-64
2023/06/17 00:29:16;;;;;;;15.43;11.55;;;23.20;66.30;;;;;;7611140;22;83210;-63
2023/06/17 00:32:17;;;;;;;16.98;11.45;;;23.20;66.20;;;;;;7637869;22;83062;-64
2023/06/17 00:35:17;;;;;;;15.57;12.75;;;23.20;66.30;;;;;;7636624;22;83156;-63
2023/06/17 00:38:18;;;;;;;16.58;11.98;;;23.20;66.30;;;;;;7636927;22;82950;-63
2023/06/17 00:41:18;;;;;;;15.98;12.10;;;23.20;66.10;;;;;;7637993;22;83852;-62
2023/06/17 00:44:19;;;;;;;17.60;12.30;;;23.20;66.10;;;;;;7638108;22;84121;-62
2023/06/17 00:47:19;;;;;;;16.05;12.20;;;23.20;66.00;;;;;;7638162;22;83275;-58
2023/06/17 00:50:20;;;;;;;17.80;12.93;;;23.20;66.00;;;;;;7638074;22;82928;-58
2023/06/17 00:53:21;;;;;;;15.95;11.73;;;23.20;65.90;;;;;;7638646;22;82715;-58
2023/06/17 00:56:25;;;;;;;19.40;13.10;;;23.30;65.90;;;;;;7610969;22;86094;-58
2023/06/17 00:59:25;;;;;;;16.60;11.68;;;23.20;65.90;;;;;;7610528;22;85440;-59
2023/06/17 01:02:27;;;;;;;12.80;11.23;;;23.20;65.90;;;;;;7637367;22;83126;-59
2023/06/17 01:05:28;;;;;;;14.48;11.13;;;23.20;65.90;;;;;;7637404;22;83417;-63
2023/06/17 01:08:29;;;;;;;14.75;12.10;;;23.20;65.80;;;;;;7638579;22;82925;-62
2023/06/17 01:11:29;;;;;;;14.32;10.95;;;23.20;65.70;;;;;;7637756;22;83508;-63
2023/06/17 01:14:30;;;;;;;14.18;11.57;;;23.20;65.70;;;;;;7638647;22;82835;-64
2023/06/17 01:17:30;;;;;;;15.73;11.95;;;23.20;65.80;;;;;;7609501;22;86391;-63
2023/06/17 01:20:32;;;;;;;15.15;11.18;;;23.20;65.70;;;;;;7637160;22;83729;-62
2023/06/17 01:23:32;;;;;;;14.77;11.93;;;23.20;65.70;;;;;;7610092;22;84924;-63
2023/06/17 01:26:34;;;;;;;13.50;11.48;;;23.20;65.60;;;;;;7637981;22;83078;-62
2023/06/17 01:29:38;;;;;;;16.05;12.10;;;23.20;65.60;;;;;;7610349;22;86260;-65
2023/06/17 01:32:38;;;;;;;14.82;11.45;;;23.20;65.50;;;;;;7610710;22;84376;-63
2023/06/17 01:35:39;;;;;;;17.63;12.35;;;23.20;65.40;;;;;;7609944;22;83792;-64
2023/06/17 01:38:41;;;;;;;15.45;12.10;;;23.20;65.40;;;;;;7610398;22;85578;-66
2023/06/17 01:41:42;;;;;;;12.90;10.95;;;23.20;65.60;;;;;;7637627;22;82959;-66
2023/06/17 01:44:42;;;;;;;16.13;11.40;;;23.20;65.20;;;;;;7637076;22;83352;-64
2023/06/17 01:47:43;;;;;;;14.27;11.57;;;23.20;65.20;;;;;;7636197;22;83345;-65
2023/06/17 01:50:43;;;;;;;14.98;11.50;;;23.20;65.10;;;;;;7636195;22;83031;-64
2023/06/17 01:53:44;;;;;;;15.02;11.13;;;23.20;65.10;;;;;;7636168;22;82969;-63
2023/06/17 01:56:44;;;;;;;14.05;11.20;;;23.20;65.20;;;;;;7611347;22;86015;-65
2023/06/17 01:59:45;;;;;;;14.23;11.70;;;23.20;65.20;;;;;;7605708;22;85445;-65
2023/06/17 02:02:46;;;;;;;18.50;11.05;;;23.20;65.10;;;;;;7610449;22;85375;-65
2023/06/17 02:05:46;;;;;;;15.23;11.23;;;23.20;64.90;;;;;;7636513;22;83230;-64
2023/06/17 02:08:47;;;;;;;12.43;10.10;;;23.10;64.70;;;;;;7637823;22;83114;-65
2023/06/17 02:11:48;;;;;;;13.85;10.75;;;23.20;64.80;;;;;;7637431;22;82864;-66
2023/06/17 02:14:49;;;;;;;14.90;11.05;;;23.20;64.80;;;;;;7610596;22;83241;-64
2023/06/17 02:17:51;;;;;;;12.68;9.55;;;23.20;64.60;;;;;;7637084;22;82891;-64
2023/06/17 02:20:54;;;;;;;14.68;9.68;;;23.10;64.80;;;;;;7613020;22;86203;-63
2023/06/17 02:23:54;;;;;;;13.95;10.50;;;23.10;64.60;;;;;;7613477;22;82896;-64
2023/06/17 02:26:55;;;;;;;12.13;9.88;;;23.20;64.70;;;;;;7608813;22;83055;-64
2023/06/17 02:29:55;;;;;;;12.77;9.60;;;23.10;64.60;;;;;;7641231;22;82627;-65
2023/06/17 02:32:56;;;;;;;12.48;9.48;;;23.10;64.40;;;;;;7612859;22;83079;-64
2023/06/17 02:35:57;;;;;;;12.77;10.00;;;23.10;64.30;;;;;;7641377;22;81001;-65
2023/06/17 02:38:58;;;;;;;12.45;9.55;;;23.10;64.20;;;;;;7610514;22;83152;-69
2023/06/17 02:41:59;;;;;;;12.13;9.38;;;23.10;64.10;;;;;;7641914;22;82998;-69
2023/06/17 02:45:03;;;;;;;11.70;8.98;;;23.20;64.10;;;;;;7614757;22;82792;-70
2023/06/17 02:48:03;;;;;;;11.65;9.30;;;23.10;64.70;;;;;;7615196;22;82988;-70
2023/06/17 02:51:04;;;;;;;13.43;8.73;;;23.20;64.00;;;;;;7615164;22;82983;-70
2023/06/17 02:54:05;;;;;;;10.00;8.25;;;23.10;63.90;;;;;;7615586;22;82921;-66
2023/06/17 02:57:05;;;;;;;12.82;8.80;;;23.10;63.70;;;;;;7639352;22;80830;-65
2023/06/17 03:00:06;;;;;;;15.45;8.73;;;23.20;63.80;;;;;;7615661;22;82208;-66
2023/06/17 03:03:07;;;;;;;11.88;8.52;;;23.20;64.00;;;;;;7615206;22;83083;-66
2023/06/17 03:06:08;;;;;;;10.18;8.05;;;23.10;63.90;;;;;;7616326;22;82827;-66
2023/06/17 03:09:11;;;;;;;11.23;8.73;;;23.10;63.90;;;;;;7614677;22;82354;-65
2023/06/17 03:12:12;;;;;;;10.85;8.50;;;23.10;63.90;;;;;;7616570;22;82792;-66
2023/06/17 03:15:17;;;;;;;9.20;7.72;;;23.10;64.00;;;;;;7613619;22;85849;-65
2023/06/17 03:18:17;;;;;;;8.88;7.07;;;23.10;63.90;;;;;;7640701;22;81519;-65
2023/06/17 06:33:28;;;;;;;13.82;7.72;;;23.30;62.70;;;;;;7669374;22;81703;-69
2023/06/17 06:36:29;;;;;;;13.18;7.75;;;23.30;62.90;;;;;;7641964;22;80744;-73
2023/06/17 06:39:29;;;;;;;11.23;7.85;;;23.30;62.60;;;;;;7614188;22;82718;-70
2023/06/17 06:42:30;;;;;;;12.82;8.23;;;23.30;62.50;;;;;;7636238;22;81171;-71
2023/06/17 06:45:46;;;;;;;11.30;7.88;;;23.30;62.70;;;;;;7614003;22;83198;-71
2023/06/17 06:48:46;;;;;;;13.07;8.43;;;23.40;62.60;;;;;;7611709;22;82144;-74
2023/06/17 06:51:47;;;;;;;13.15;8.35;;;23.40;62.50;;;;;;7615495;22;83131;-70
2023/06/17 06:54:47;;;;;;;11.80;9.00;;;23.30;62.30;;;;;;7611968;22;82105;-69
2023/06/17 06:57:48;;;;;;;12.10;9.23;;;23.30;62.30;;;;;;7640756;22;80341;-69
2023/06/17 07:00:48;;;;;;;15.40;9.32;;;23.40;62.80;;;;;;7614322;22;83546;-74
2023/06/17 07:03:50;;;;;;;12.23;9.32;;;23.30;62.30;;;;;;7613647;22;81676;-71
2023/06/17 07:06:51;;;;;;;13.38;10.63;;;23.30;62.10;;;;;;7612871;22;82903;-70
2023/06/17 07:09:55;;;;;;;16.95;10.60;;;23.40;62.20;;;;;;7607348;22;83167;-72
2023/06/17 07:12:56;;;;;;;14.98;11.27;;;23.40;62.00;;;;;;7634486;22;83141;-68
2023/06/17 07:15:57;;;;;;;16.58;11.15;;;23.40;62.00;;;;;;7608712;22;85867;-69
2023/06/17 07:18:57;;;;;;;15.10;11.15;;;23.50;62.00;;;;;;7636504;22;84163;-68
2023/06/17 07:21:58;;;;;;;16.48;11.55;;;23.40;62.00;;;;;;7609950;22;85254;-67
2023/06/17 07:25:00;;;;;;;14.48;10.77;;;23.40;62.00;;;;;;7607520;22;85404;-67
2023/06/17 07:28:01;;;;;;;15.55;11.77;;;23.50;61.50;;;;;;7608638;22;84672;-67
2023/06/17 07:31:02;;;;;;;17.08;11.25;;;23.50;61.90;;;;;;7607711;22;85559;-68
2023/06/17 07:34:02;;;;;;;18.33;11.90;;;23.50;61.70;;;;;;7616461;22;86247;-68
2023/06/17 07:37:04;;;;;;;17.52;12.43;;;23.50;61.50;;;;;;7645270;22;85820;-72
2023/06/17 07:40:06;;;;;;;19.25;11.82;;;23.30;61.40;;;;;;7645446;22;85587;-69
2023/06/17 07:43:06;;;;;;;22.63;13.60;;;23.30;61.90;;;;;;7673553;22;83277;-69
2023/06/17 07:46:07;;;;;;;16.08;12.35;;;23.30;61.90;;;;;;7669742;22;84782;-71
2023/06/17 07:49:07;;;;;;;21.63;12.43;;;23.30;62.00;;;;;;7673012;22;90372;-66
2023/06/17 07:52:08;;;;;;;17.67;12.13;;;23.40;62.00;;;;;;7676180;22;82758;-68
2023/06/17 07:55:08;;;;;;;16.40;12.30;;;23.50;62.00;;;;;;7678524;22;83459;-69
2023/06/17 07:58:09;;;;;;;21.38;12.10;;;23.50;61.50;;;;;;7679067;22;83356;-70
2023/06/17 08:01:10;;;;;;;19.83;12.07;;;23.60;61.70;;;;;;7679074;22;82697;-70
2023/06/17 08:04:10;;;;;;;18.27;12.48;;;23.60;61.70;;;;;;7669092;22;84180;-69
2023/06/17 08:07:11;;;;;;;16.58;12.80;;;23.60;61.70;;;;;;7676013;22;83677;-61
2023/06/17 08:10:11;;;;;;;23.67;12.52;;;23.60;61.90;;;;;;7675965;22;82890;-60
2023/06/17 08:13:12;;;;;;;17.77;12.68;;;23.60;61.50;;;;;;7675841;22;82978;-61
2023/06/17 08:16:12;;;;;;;18.85;12.68;;;23.60;61.50;;;;;;7675864;22;86772;-60
2023/06/17 08:19:13;;;;;;;20.13;12.82;;;23.60;61.40;;;;;;7672257;22;83046;-61
2023/06/17 08:22:13;;;;;;;21.50;12.80;;;23.70;61.40;;;;;;7677457;22;82523;-60
2023/06/17 08:25:14;;;;;;;19.17;13.07;;;23.70;61.30;;;;;;7677575;22;83343;-64
2023/06/17 08:28:14;;;;;;;16.33;12.35;;;23.70;61.20;;;;;;7677976;22;84307;-69
2023/06/17 08:31:16;;;;;;;17.08;12.43;;;23.80;61.00;;;;;;7672367;22;84452;-70
2023/06/17 08:34:17;;;;;;;17.05;12.50;;;23.80;61.00;;;;;;7675516;22;83519;-70
2023/06/17 08:37:17;;;;;;;18.98;12.75;;;23.80;60.90;;;;;;7675199;22;82793;-69
2023/06/17 08:40:18;;;;;;;15.68;12.60;;;23.80;60.90;;;;;;7675729;22;83941;-68
2023/06/17 08:43:18;;;;;;;16.90;11.57;;;23.90;60.80;;;;;;7676298;22;83485;-69
2023/06/17 08:46:19;;;;;;;19.55;12.40;;;23.90;60.90;;;;;;7673013;22;82646;-60
2023/06/17 08:49:19;;;;;;;13.93;11.10;;;23.90;60.60;;;;;;7676689;22;82955;-60
2023/06/17 08:52:20;;;;;;;15.77;11.25;;;23.90;60.60;;;;;;7675136;22;82823;-60
2023/06/17 08:55:21;;;;;;;13.85;11.10;;;24.00;60.70;;;;;;7675568;22;84057;-60
2023/06/17 08:58:21;;;;;;;14.60;10.52;;;24.00;60.60;;;;;;7676862;22;83165;-61
2023/06/17 09:01:22;;;;;;;12.35;10.07;;;24.00;60.40;;;;;;7645020;22;85830;-60
2023/06/17 09:04:23;;;;;;;14.18;10.95;;;24.00;60.20;;;;;;7676743;22;82960;-69
2023/06/17 09:07:23;;;;;;;15.43;9.77;;;24.00;60.30;;;;;;7675752;22;83121;-70
2023/06/17 09:10:24;;;;;;;14.80;9.70;;;24.00;60.30;;;;;;7680220;22;83520;-71
2023/06/17 09:13:24;;;;;;;13.15;9.70;;;24.00;60.10;;;;;;7675568;22;80548;-65
2023/06/17 09:16:25;;;;;;;13.05;10.20;;;24.10;60.10;;;;;;7679045;22;81080;-70
2023/06/17 09:19:26;;;;;;;15.50;9.82;;;24.10;60.20;;;;;;7676147;22;82856;-71
2023/06/17 09:22:27;;;;;;;14.98;10.07;;;24.10;60.10;;;;;;7680563;22;82667;-71
2023/06/17 09:25:27;;;;;;;16.85;9.43;;;24.10;60.40;;;;;;7673853;22;83168;-60
2023/06/17 09:28:27;;;;;;;14.75;9.35;;;24.10;60.40;;;;;;7679286;22;83382;-63
2023/06/17 09:31:28;;;;;;;16.63;10.48;;;24.10;60.40;;;;;;7677772;22;80406;-73
2023/06/17 11:33:17;;;;;;;10.90;7.53;;;24.60;58.40;;;;;;7676192;22;80544;-63
2023/06/17 11:36:17;;;;;;;12.98;7.88;;;24.70;58.90;;;;;;7677560;22;86539;-63
2023/06/17 11:39:18;;;;;;;10.02;7.22;;;24.70;57.60;;;;;;7678974;22;80509;-64
2023/06/17 11:42:19;;;;;;;8.73;7.15;;;24.70;57.60;;;;;;7679651;22;80647;-64
2023/06/17 11:45:20;;;;;;;12.23;8.02;;;24.60;56.80;;;;;;7652013;22;80129;-61
2023/06/17 11:48:20;;;;;;;13.70;8.13;;;24.60;58.00;;;;;;7678053;22;80925;-64
2023/06/17 11:51:21;;;;;;;11.85;7.95;;;24.60;57.50;;;;;;7652843;22;80358;-63
2023/06/17 11:54:21;;;;;;;10.13;7.35;;;24.70;58.20;;;;;;7679127;22;80151;-66
2023/06/17 11:57:22;;;;;;;11.30;6.93;;;24.70;56.70;;;;;;7679719;22;80334;-64
2023/06/17 12:00:22;;;;;;;9.57;7.30;;;24.60;57.00;;;;;;7678785;22;81461;-66
2023/06/17 12:03:23;;;;;;;8.43;6.90;;;24.70;57.00;;;;;;7679434;22;81333;-63
2023/06/17 12:06:24;;;;;;;10.10;7.30;;;24.70;56.50;;;;;;7678685;22;80406;-62
2023/06/17 12:09:24;;;;;;;9.23;7.03;;;24.60;55.80;;;;;;7680235;22;80424;-63
2023/06/17 12:12:25;;;;;;;9.13;6.82;;;24.70;54.90;;;;;;7674411;22;81122;-60
2023/06/17 12:15:25;;;;;;;11.77;7.10;;;24.70;56.70;;;;;;7682442;22;80661;-62
2023/06/17 12:18:26;;;;;;;12.00;6.95;;;24.70;55.40;;;;;;7682937;22;80443;-66
2023/06/17 12:21:26;;;;;;;9.63;6.40;;;24.70;55.20;;;;;;7682053;22;80271;-61
2023/06/17 12:24:27;;;;;;;15.90;7.28;;;24.70;54.70;;;;;;7681886;22;80389;-63
2023/06/17 12:27:28;;;;;;;11.93;7.97;;;24.70;54.80;;;;;;7677871;22;80314;-60
2023/06/17 12:30:29;;;;;;;10.00;6.93;;;24.70;54.90;;;;;;7681677;22;80379;-59
2023/06/17 12:33:30;;;;;;;11.77;6.93;;;24.70;54.10;;;;;;7681362;22;80226;-63
2023/06/17 12:36:31;;;;;;;8.82;6.68;;;24.70;54.50;;;;;;7682824;22;80427;-61
2023/06/17 12:39:32;;;;;;;11.57;6.50;;;24.70;55.00;;;;;;7681614;22;80903;-63
2023/06/17 12:42:33;;;;;;;15.15;7.18;;;24.70;54.90;;;;;;7677684;22;80264;-59
2023/06/17 12:45:34;;;;;;;12.70;6.60;;;24.70;54.70;;;;;;7681642;22;80644;-61
2023/06/17 12:48:34;;;;;;;8.10;6.47;;;24.80;54.50;;;;;;7679556;22;80420;-61
2023/06/17 12:51:35;;;;;;;11.27;6.70;;;24.80;54.90;;;;;;7680979;22;80354;-59
2023/06/17 12:54:35;;;;;;;9.75;6.35;;;24.90;55.50;;;;;;7679019;22;81542;-61
2023/06/17 12:57:36;;;;;;;9.48;6.28;;;24.90;54.50;;;;;;7681317;22;80322;-62
2023/06/17 13:00:36;;;;;;;8.80;6.53;;;24.90;54.50;;;;;;7682644;22;80454;-64
2023/06/17 13:03:37;;;;;;;7.43;5.70;;;24.90;55.20;;;;;;7680260;22;80753;-59
2023/06/17 13:06:38;;;;;;;7.28;5.93;;;25.00;54.60;;;;;;7680028;22;80494;-58
2023/06/17 13:09:39;;;;;;;8.30;5.82;;;25.00;53.60;;;;;;7676789;22;80203;-60
2023/06/17 13:12:39;;;;;;;11.43;7.45;;;25.00;54.00;;;;;;7681253;22;80543;-59
2023/06/17 13:15:40;;;;;;;7.63;5.50;;;25.00;53.60;;;;;;7680639;22;80409;-57
2023/06/17 13:18:42;;;;;;;8.30;6.15;;;25.00;53.50;;;;;;7681768;22;80521;-59
2023/06/17 13:21:43;;;;;;;6.57;5.90;;;25.00;53.50;;;;;;7681433;22;80487;-57
2023/06/17 13:24:43;;;;;;;8.35;5.65;;;24.90;51.80;;;;;;7677355;22;80645;-59
2023/06/17 13:27:44;;;;;;;6.38;5.78;;;24.90;52.80;;;;;;7681439;22;80537;-58
2023/06/17 13:30:44;;;;;;;7.35;5.38;;;25.00;52.70;;;;;;7681572;22;80532;-55
2023/06/17 13:33:45;;;;;;;6.75;5.55;;;24.90;51.60;;;;;;7680543;22;80041;-57
2023/06/17 13:36:46;;;;;;;7.60;5.63;;;24.90;51.00;;;;;;7680283;22;81603;-59
2023/06/17 13:39:46;;;;;;;8.13;5.60;;;25.00;51.50;;;;;;7681468;22;80655;-57
2023/06/17 13:42:47;;;;;;;8.32;5.60;;;25.00;51.70;;;;;;7681563;22;80313;-55
2023/06/17 13:45:47;;;;;;;5.18;4.68;;;25.00;50.80;;;;;;7682573;22;80501;-57
2023/06/17 13:48:48;;;;;;;6.15;5.55;;;25.00;51.50;;;;;;7678151;22;81075;-57
2023/06/17 13:51:48;;;;;;;12.20;6.20;;;25.00;51.10;;;;;;7679284;22;80906;-57
2023/06/17 13:54:49;;;;;;;6.35;5.13;;;25.00;51.00;;;;;;7678136;22;80169;-57
2023/06/17 13:57:50;;;;;;;8.48;5.22;;;25.00;51.60;;;;;;7679475;22;80555;-58
2023/06/17 14:00:51;;;;;;;9.18;5.30;;;25.10;51.70;;;;;;7676559;22;81892;-58
2023/06/17 14:03:52;;;;;;;11.70;5.50;;;25.00;51.30;;;;;;7678637;22;80117;-58
2023/06/17 14:06:53;;;;;;;8.77;5.97;;;25.00;51.90;;;;;;7677810;22;80661;-57
2023/06/17 14:09:53;;;;;;;7.85;5.00;;;24.90;51.80;;;;;;7678782;22;80718;-59
2023/06/17 14:12:54;;;;;;;6.72;5.55;;;24.90;51.80;;;;;;7678621;22;80961;-57
2023/06/17 14:15:54;;;;;;;8.70;5.35;;;24.90;51.50;;;;;;7651439;22;81457;-58
2023/06/17 14:18:55;;;;;;;10.93;5.30;;;25.00;51.70;;;;;;7679209;22;80757;-56
2023/06/17 14:21:55;;;;;;;10.57;5.35;;;25.00;51.70;;;;;;7678989;22;80372;-55
2023/06/17 14:24:56;;;;;;;10.60;6.05;;;24.90;51.50;;;;;;7679006;22;79930;-57
2023/06/17 14:27:57;;;;;;;8.70;4.93;;;25.00;51.60;;;;;;7678399;22;80663;-57
2023/06/17 15:54:25;;;;;;;9.45;4.65;;;24.60;53.80;;;;;;7679326;22;81243;-64
2023/06/17 15:57:26;;;;;;;14.43;5.28;;;24.60;54.00;;;;;;7680144;22;80826;-67
2023/06/17 16:00:27;;;;;;;9.77;4.50;;;24.60;54.00;;;;;;7681634;22;80304;-63
2023/06/17 16:03:28;;;;;;;8.32;4.80;;;24.60;53.70;;;;;;7680693;22;80908;-63
2023/06/17 16:06:29;;;;;;;8.20;4.75;;;24.60;53.50;;;;;;7680801;22;80933;-66
2023/06/17 16:09:30;;;;;;;5.47;4.28;;;24.60;53.00;;;;;;7680152;22;80387;-66
2023/06/17 16:12:32;;;;;;;7.25;4.22;;;24.60;52.70;;;;;;7680049;22;80274;-65
2023/06/17 16:15:33;;;;;;;5.97;4.68;;;24.60;53.00;;;;;;7681381;22;80827;-63
2023/06/17 16:18:34;;;;;;;5.95;4.40;;;24.60;53.50;;;;;;7680777;22;80074;-59
2023/06/17 16:21:35;;;;;;;5.97;4.20;;;24.60;53.70;;;;;;7680497;22;80479;-70
2023/06/17 16:24:35;;;;;;;11.07;4.40;;;24.60;53.50;;;;;;7681368;22;80522;-66
2023/06/17 16:27:36;;;;;;;5.72;4.25;;;24.60;53.30;;;;;;7679968;22;80295;-68
2023/06/17 16:30:36;;;;;;;6.93;4.45;;;24.60;53.70;;;;;;7681009;22;80066;-70
2023/06/17 16:33:37;;;;;;;6.85;4.75;;;24.60;53.80;;;;;;7680666;22;81591;-71
2023/06/17 16:36:37;;;;;;;5.50;4.25;;;24.60;54.00;;;;;;7680456;22;80732;-70
2023/06/17 16:39:38;;;;;;;5.72;4.43;;;24.60;53.70;;;;;;7682300;22;80363;-70
2023/06/17 16:42:39;;;;;;;7.82;4.75;;;24.60;53.70;;;;;;7680570;22;80361;-60
2023/06/17 16:45:40;;;;;;;6.00;4.50;;;24.60;53.10;;;;;;7676895;22;81022;-60
2023/06/17 16:48:40;;;;;;;7.85;3.63;;;24.50;53.40;;;;;;7678990;22;80043;-62
2023/06/17 16:51:41;;;;;;;7.68;3.95;;;24.50;53.30;;;;;;7678666;22;80389;-62
2023/06/17 16:54:42;;;;;;;8.35;4.50;;;24.50;53.50;;;;;;7678973;22;80021;-62
2023/06/17 16:57:42;;;;;;;5.50;4.50;;;24.50;54.10;;;;;;7677967;22;80971;-62
2023/06/17 17:00:43;;;;;;;7.28;4.50;;;24.40;54.60;;;;;;7653118;22;81688;-59
2023/06/17 17:03:45;;;;;;;5.70;4.38;;;24.40;55.00;;;;;;7678445;22;80438;-58
2023/06/17 17:06:46;;;;;;;7.45;4.22;;;24.50;54.70;;;;;;7678621;22;80206;-58
2023/06/17 17:09:46;;;;;;;7.70;4.22;;;24.50;54.70;;;;;;7678569;22;80486;-58
2023/06/17 17:12:47;;;;;;;6.38;4.93;;;24.50;54.90;;;;;;7679600;22;80888;-60
2023/06/17 17:15:47;;;;;;;7.72;4.18;;;24.50;55.10;;;;;;7679731;22;80622;-54
2023/06/17 17:18:48;;;;;;;6.80;4.55;;;24.40;54.60;;;;;;7680069;22;81024;-63
2023/06/17 17:21:48;;;;;;;4.50;4.05;;;24.40;54.30;;;;;;7681368;22;80907;-63
2023/06/17 17:24:49;;;;;;;6.10;3.90;;;24.40;55.10;;;;;;7680804;22;81694;-61
2023/06/17 17:27:49;;;;;;;7.65;4.30;;;24.40;55.20;;;;;;7678746;22;80591;-61
2023/06/17 17:30:50;;;;;;;6.50;4.53;;;24.40;55.00;;;;;;7679581;22;81440;-60
2023/06/17 17:33:51;;;;;;;5.15;3.88;;;24.40;54.80;;;;;;7681153;22;80516;-59
2023/06/17 17:36:51;;;;;;;11.57;5.00;;;24.40;54.20;;;;;;7676841;22;81591;-60
2023/06/17 17:39:52;;;;;;;10.68;4.53;;;24.40;54.50;;;;;;7679634;22;80459;-60
2023/06/17 17:42:53;;;;;;;7.43;4.18;;;24.40;54.60;;;;;;7679643;22;80646;-59
2023/06/17 17:45:53;;;;;;;8.55;4.93;;;24.40;54.50;;;;;;7678488;22;80213;-61
2023/06/17 17:48:54;;;;;;;8.63;4.88;;;24.30;54.50;;;;;;7678642;22;80216;-62
2023/06/17 17:51:54;;;;;;;6.50;5.30;;;24.30;54.60;;;;;;7677915;22;81106;-62
2023/06/17 17:54:55;;;;;;;12.38;4.82;;;24.30;54.90;;;;;;7675619;22;80505;-59
2023/06/17 17:57:56;;;;;;;5.55;4.78;;;24.20;54.60;;;;;;7645424;22;80966;-63
2023/06/17 18:00:58;;;;;;;9.20;5.43;;;24.20;54.80;;;;;;7681783;22;80494;-66
2023/06/17 18:03:59;;;;;;;6.97;5.05;;;24.10;54.80;;;;;;7680469;22;80894;-65
2023/06/17 18:06:59;;;;;;;7.75;5.13;;;23.80;55.40;;;;;;7680691;22;80355;-65
2023/06/17 18:10:00;;;;;;;12.10;5.15;;;23.80;55.60;;;;;;7679782;22;80356;-65
2023/06/17 18:13:00;;;;;;;8.75;5.70;;;23.90;55.60;;;;;;7675970;22;81240;-61
2023/06/17 18:16:01;;;;;;;10.80;4.85;;;24.00;55.60;;;;;;7682424;22;80351;-69
2023/06/17 18:19:02;;;;;;;9.73;5.07;;;24.00;55.60;;;;;;7680653;22;80861;-71
2023/06/17 18:22:02;;;;;;;7.70;4.57;;;24.00;55.90;;;;;;7680133;22;80724;-69
2023/06/17 18:25:03;;;;;;;6.22;4.85;;;24.00;56.10;;;;;;7682240;22;80763;-70
2023/06/17 18:28:05;;;;;;;13.85;6.10;;;24.00;56.50;;;;;;7669272;22;81999;-66
2023/06/17 18:31:05;;;;;;;9.20;5.70;;;24.00;56.40;;;;;;7655518;22;80673;-71
2023/06/17 18:34:06;;;;;;;10.07;5.95;;;24.10;56.60;;;;;;7668222;22;80145;-74
2023/06/17 18:37:06;;;;;;;9.15;5.50;;;24.10;57.00;;;;;;7664737;22;80456;-71
2023/06/17 18:40:07;;;;;;;8.63;5.55;;;24.10;56.90;;;;;;7659918;22;80380;-71
2023/06/17 18:43:08;;;;;;;8.40;6.05;;;24.10;56.90;;;;;;7663333;22;85901;-73
2023/06/17 18:46:08;;;;;;;8.48;5.47;;;24.10;57.00;;;;;;7636432;22;83556;-71
2023/06/17 18:49:10;;;;;;;8.20;6.18;;;24.10;56.90;;;;;;7665110;22;81259;-73
2023/06/17 19:07:00;;;;;;;11.68;8.13;;;24.00;57.20;;;;;;7656809;22;80310;-73
2023/06/17 19:10:00;;;;;;;10.38;7.03;;;24.00;57.30;;;;;;7661889;22;81443;-71
2023/06/17 19:13:02;;;;;;;14.38;7.75;;;24.00;57.30;;;;;;7660938;22;81088;-68
2023/06/17 19:16:03;;;;;;;10.82;7.40;;;24.00;57.50;;;;;;7661345;22;87239;-68
2023/06/17 19:19:03;;;;;;;9.52;6.93;;;24.00;57.30;;;;;;7663245;22;80285;-69
2023/06/17 19:22:04;;;;;;;10.95;7.18;;;24.00;57.30;;;;;;7663729;22;81042;-69
2023/06/17 19:25:04;;;;;;;12.25;7.50;;;24.00;57.30;;;;;;7659446;22;81334;-64
2023/06/17 19:28:05;;;;;;;8.43;6.70;;;24.00;57.20;;;;;;7659483;22;81620;-63
2023/06/17 19:31:05;;;;;;;9.80;7.00;;;24.00;57.40;;;;;;7661193;22;81012;-64
2023/06/17 19:34:06;;;;;;;10.68;7.53;;;24.00;57.30;;;;;;7647842;22;83116;-60
2023/06/17 19:37:06;;;;;;;11.27;6.63;;;24.00;57.30;;;;;;7655695;22;80842;-60
2023/06/17 19:40:07;;;;;;;12.38;7.03;;;24.00;57.40;;;;;;7654464;22;80760;-61
2023/06/17 19:43:07;;;;;;;8.73;6.82;;;24.00;57.30;;;;;;7659598;22;80894;-62
2023/06/17 19:46:08;;;;;;;11.98;8.98;;;24.00;57.30;;;;;;7662891;22;80477;-71
2023/06/17 19:49:08;;;;;;;11.85;8.02;;;24.00;57.40;;;;;;7657849;22;81453;-72
2023/06/17 19:52:09;;;;;;;13.40;7.82;;;24.00;57.40;;;;;;7659011;22;80571;-71
2023/06/17 19:55:10;;;;;;;12.95;8.05;;;24.00;57.50;;;;;;7644968;22;80845;-71
2023/06/17 19:58:10;;;;;;;11.38;7.93;;;24.00;57.60;;;;;;7647764;22;80913;-72
2023/06/17 20:01:11;;;;;;;9.25;7.05;;;24.00;57.60;;;;;;7645515;22;81671;-72
2023/06/17 20:04:11;;;;;;;10.40;7.18;;;24.00;57.60;;;;;;7650095;22;80511;-62
2023/06/17 20:07:12;;;;;;;10.80;6.72;;;23.90;57.60;;;;;;7621364;22;81423;-60
2023/06/17 20:10:13;;;;;;;11.02;7.32;;;24.00;57.80;;;;;;7609331;22;82766;-63
2023/06/17 20:13:13;;;;;;;10.35;6.70;;;24.00;58.00;;;;;;7607118;22;80699;-63
2023/06/17 20:16:14;;;;;;;8.05;6.05;;;24.00;58.10;;;;;;7581010;22;81945;-61
2023/06/17 20:19:14;;;;;;;10.15;6.68;;;24.00;58.00;;;;;;7613388;22;81105;-63
2023/06/17 20:22:15;;;;;;;13.13;7.30;;;24.00;58.00;;;;;;7601583;22;81138;-62
2023/06/17 20:25:15;;;;;;;11.70;7.22;;;24.10;58.00;;;;;;7608094;22;81488;-62
2023/06/17 20:28:16;;;;;;;8.98;6.15;;;24.10;57.90;;;;;;7603818;22;80965;-62
2023/06/17 20:31:16;;;;;;;9.32;6.63;;;24.10;57.90;;;;;;7606892;22;81345;-61
2023/06/17 20:34:17;;;;;;;7.90;5.72;;;24.10;57.90;;;;;;7610650;22;81368;-64
2023/06/17 20:37:18;;;;;;;7.85;5.78;;;24.10;58.00;;;;;;7606089;22;81895;-62
2023/06/17 20:40:18;;;;;;;6.80;5.60;;;24.10;58.10;;;;;;7606197;22;80663;-62
2023/06/17 20:43:19;;;;;;;8.07;6.00;;;24.10;58.10;;;;;;7608664;22;81305;-60
2023/06/17 20:46:19;;;;;;;9.95;5.80;;;24.10;58.10;;;;;;7609121;22;81394;-62
2023/06/17 20:49:20;;;;;;;6.88;5.47;;;24.10;58.20;;;;;;7610495;22;80296;-61
2023/06/17 20:52:20;;;;;;;7.13;5.55;;;24.10;58.20;;;;;;7597733;22;81861;-64
2023/06/17 20:55:21;;;;;;;8.00;5.53;;;24.10;58.20;;;;;;7627241;22;81672;-62
2023/06/17 20:58:22;;;;;;;7.28;5.60;;;24.10;58.30;;;;;;7628279;22;81811;-64
2023/06/17 21:01:22;;;;;;;6.32;5.18;;;24.10;58.20;;;;;;7637618;22;81071;-67
2023/06/17 21:04:23;;;;;;;7.20;5.07;;;24.10;58.50;;;;;;7634337;22;81645;-63
2023/06/17 21:07:24;;;;;;;6.25;4.60;;;24.10;58.60;;;;;;7642592;22;80346;-64
2023/06/17 21:10:25;;;;;;;6.70;5.03;;;24.10;58.40;;;;;;7643179;22;80543;-61
2023/06/17 21:13:25;;;;;;;7.63;4.60;;;24.10;58.40;;;;;;7644139;22;80738;-63
2023/06/17 21:16:26;;;;;;;6.90;5.20;;;24.10;58.60;;;;;;7641130;22;80253;-64
2023/06/17 21:19:26;;;;;;;5.90;4.80;;;24.10;58.60;;;;;;7642663;22;80850;-61
2023/06/17 21:22:27;;;;;;;7.22;5.43;;;24.10;58.70;;;;;;7641010;22;80355;-61
2023/06/17 21:25:27;;;;;;;6.38;4.20;;;24.10;58.60;;;;;;7641806;22;80904;-63
2023/06/17 21:28:28;;;;;;;6.63;4.78;;;24.10;58.60;;;;;;7642711;22;81001;-62
2023/06/17 21:31:28;;;;;;;6.75;5.07;;;24.10;58.60;;;;;;7641620;22;80317;-61
2023/06/17 21:34:29;;;;;;;6.32;4.18;;;24.10;58.60;;;;;;7614278;22;81477;-62
2023/06/17 21:37:29;;;;;;;6.65;4.35;;;24.10;58.50;;;;;;7641316;22;80429;-61
2023/06/17 21:40:30;;;;;;;5.45;4.40;;;24.10;58.60;;;;;;7641876;22;80374;-62
2023/06/17 21:43:32;;;;;;;5.97;4.30;;;24.10;58.60;;;;;;7641629;22;80365;-62
2023/06/17 21:46:32;;;;;;;6.63;4.63;;;24.10;58.50;;;;;;7613526;22;80500;-62
2023/06/17 21:49:34;;;;;;;6.53;4.38;;;24.10;58.60;;;;;;7638504;22;81196;-62
2023/06/17 21:52:34;;;;;;;6.88;4.80;;;24.10;58.70;;;;;;7638412;22;80639;-62
2023/06/17 21:55:35;;;;;;;6.40;4.47;;;24.00;58.60;;;;;;7638404;22;80685;-60
2023/06/17 21:58:35;;;;;;;6.38;4.55;;;24.00;58.60;;;;;;7637305;22;81437;-60
2023/06/17 22:01:36;;;;;;;5.13;4.38;;;24.00;58.80;;;;;;7636937;22;80407;-60
2023/06/17 22:04:36;;;;;;;6.72;4.82;;;24.00;58.80;;;;;;7639173;22;80586;-61
2023/06/17 22:07:37;;;;;;;5.15;4.05;;;24.00;58.80;;;;;;7638352;22;80836;-60
2023/06/17 22:10:37;;;;;;;6.18;4.70;;;24.00;58.80;;;;;;7641053;22;80867;-61
2023/06/17 22:13:38;;;;;;;5.45;4.43;;;24.00;58.80;;;;;;7641668;22;81107;-61
2023/06/17 22:16:41;;;;;;;5.88;4.50;;;24.00;58.80;;;;;;7641233;22;81299;-61
2023/06/17 22:19:41;;;;;;;8.55;4.55;;;24.00;58.90;;;;;;7640642;22;80186;-61